aviador You're here:

KGUS Decoded Metar

PERU in IN, USA
Report Time2017-10-21 14:56:00
UTC Time2017-10-21 15:40:24
Flight Rules vfr VFR
Wind190° at 10 kt
W.Decomp.*RWY 23: 7.9 kt HW 6.2 kt LCW
W.Rank190° ranks 8
Current wind is above 190° avg. (8.3)
Visibility9999 m
Phenomena:N/A
Clouds:Few 170 Hf
Expected CloudBase > 2,800 ft AGL from Temp-Dew spread
CeilingNone
Temp18°C (ISA +5)
Dew Point11°C (64% RH)
AAT14.7°C
QNH1022 hPa
Density Alt1,227 ft
Elevation810 ft
Report Wrong Elevation
Raw Report
KGUS 211456Z AUTO 19010KT 10SM FEW170 18/11 A3018 RMK AO2 SLPNO
T01840107 50004 $=

Extra information for KGUS:More info

Metar Taf Metar & Taf Last 4 Metars F.Rules Stats Wind Profile Meteogram Temp Stats Airport Information Weather charts Add Link Nearby VenuesMetar ALERT Operation Metar Decoded Social comments

AIRNAV info for KGUS